createdAt,value
2022-10-20T00:03:59.659Z,5.30
2022-10-20T00:09:04.231Z,5.20
2022-10-20T00:14:07.087Z,8.40
2022-10-20T00:19:09.712Z,3.80
2022-10-20T00:24:12.402Z,7.20
2022-10-20T00:29:15.143Z,5.20
2022-10-20T00:34:18.209Z,6.00
2022-10-20T00:39:20.910Z,2.80
2022-10-20T00:44:56.573Z,4.60
2022-10-20T00:50:06.111Z,6.10
2022-10-20T00:55:11.804Z,9.00
2022-10-20T01:00:15.709Z,4.60
2022-10-20T01:05:18.618Z,7.20
2022-10-20T01:10:23.563Z,3.90
2022-10-20T01:15:43.275Z,4.80
2022-10-20T01:21:08.082Z,3.90
2022-10-20T01:26:41.892Z,4.30
2022-10-20T01:31:53.456Z,6.80
2022-10-20T01:37:01.338Z,4.20
2022-10-20T01:42:11.226Z,9.70
2022-10-20T01:47:16.157Z,8.10
2022-10-20T01:52:19.271Z,5.00
2022-10-20T01:57:55.674Z,6.60
2022-10-20T02:08:12.442Z,5.40
2022-10-20T02:13:16.177Z,8.30
2022-10-20T02:18:25.692Z,10.20
2022-10-20T02:23:35.105Z,10.20
2022-10-20T02:28:44.843Z,10.30
2022-10-20T02:33:48.940Z,6.70
2022-10-20T02:38:51.541Z,8.40
2022-10-20T02:43:54.252Z,6.50
2022-10-20T02:48:56.963Z,5.70
2022-10-20T02:53:59.552Z,6.80
2022-10-20T02:59:02.258Z,6.60
2022-10-20T03:04:05.075Z,5.10
2022-10-20T03:09:07.861Z,6.20
2022-10-20T03:14:11.359Z,8.60
2022-10-20T03:19:14.279Z,6.80
2022-10-20T03:24:17.087Z,8.50
2022-10-20T03:29:19.779Z,5.70
2022-10-20T03:34:22.750Z,7.70
2022-10-20T03:39:25.356Z,7.20
2022-10-20T03:44:27.979Z,7.50
2022-10-20T03:49:31.696Z,8.00
2022-10-20T03:54:36.005Z,7.90
2022-10-20T03:59:38.634Z,6.50
2022-10-20T04:04:41.216Z,6.10
2022-10-20T04:09:43.810Z,6.60
2022-10-20T04:14:46.410Z,7.30
2022-10-20T04:19:49.019Z,8.40
2022-10-20T04:24:51.653Z,9.80
2022-10-20T04:29:54.421Z,9.20
2022-10-20T04:34:57.400Z,9.10
2022-10-20T04:40:00.084Z,8.70
2022-10-20T04:45:02.770Z,12.70
2022-10-20T04:50:06.134Z,9.30
2022-10-20T04:55:09.329Z,10.60
2022-10-20T05:00:12.936Z,19.70
2022-10-20T05:05:15.562Z,18.20
2022-10-20T05:10:19.589Z,12.50
2022-10-20T05:15:22.287Z,9.90
2022-10-20T05:20:24.985Z,14.30
2022-10-20T05:25:42.805Z,13.70
2022-10-20T05:30:45.556Z,21.50
2022-10-20T05:35:48.212Z,16.40
2022-10-20T05:40:51.013Z,18.80
2022-10-20T05:45:54.882Z,32.80
2022-10-20T05:51:17.125Z,24.50
2022-10-20T05:56:21.070Z,11.30
2022-10-20T06:01:38.771Z,12.20
2022-10-20T06:06:41.979Z,14.70
2022-10-20T06:11:48.322Z,41.00
2022-10-20T06:16:55.955Z,48.40
2022-10-20T06:22:03.811Z,41.50
2022-10-20T06:27:09.385Z,18.20
2022-10-20T06:32:12.096Z,13.60
2022-10-20T06:37:14.929Z,10.10
2022-10-20T06:42:19.542Z,12.80
2022-10-20T06:47:26.642Z,12.30
2022-10-20T06:52:32.277Z,16.40
2022-10-20T06:57:36.011Z,21.60
2022-10-20T07:02:47.534Z,18.80
2022-10-20T07:07:57.719Z,29.70
2022-10-20T07:13:00.620Z,14.60
2022-10-20T07:18:06.967Z,49.40
2022-10-20T07:23:11.093Z,38.40
2022-10-20T07:28:17.262Z,14.60
2022-10-20T07:33:20.323Z,13.50
2022-10-20T07:38:23.037Z,10.00
2022-10-20T07:43:25.645Z,10.90
2022-10-20T07:48:33.663Z,9.00
2022-10-20T07:53:53.830Z,19.80
2022-10-20T07:58:59.624Z,13.30
2022-10-20T08:04:02.515Z,14.00
2022-10-20T08:09:05.713Z,16.40
2022-10-20T08:14:08.643Z,18.00
2022-10-20T08:19:20.152Z,17.90
2022-10-20T08:24:22.985Z,13.60
2022-10-20T08:29:25.851Z,46.60
2022-10-20T08:34:28.564Z,43.80
2022-10-20T08:39:31.437Z,43.50
2022-10-20T08:44:36.248Z,58.50
2022-10-20T08:49:39.202Z,53.60
2022-10-20T08:54:42.148Z,31.00
2022-10-20T08:59:44.774Z,21.80
2022-10-20T09:04:55.860Z,20.00
2022-10-20T09:10:14.753Z,12.20
2022-10-20T09:15:20.240Z,11.70
2022-10-20T09:20:30.496Z,14.90
2022-10-20T09:25:34.607Z,9.90
2022-10-20T09:30:37.223Z,8.80
2022-10-20T09:35:40.303Z,8.80
2022-10-20T09:41:13.304Z,11.20
2022-10-20T09:46:22.673Z,8.30
2022-10-20T09:51:27.707Z,11.10
2022-10-20T09:56:36.968Z,9.10
2022-10-20T10:02:01.187Z,10.80
2022-10-20T10:07:05.953Z,6.90
2022-10-20T10:12:11.375Z,7.80
2022-10-20T10:17:32.038Z,8.10
2022-10-20T10:22:36.402Z,9.70
2022-10-20T10:27:39.343Z,6.90
2022-10-20T10:32:47.732Z,8.60
2022-10-20T10:37:52.390Z,9.60
2022-10-20T10:43:08.411Z,9.50
2022-10-20T10:48:23.423Z,7.30
2022-10-20T10:53:44.888Z,8.10
2022-10-20T10:58:58.201Z,6.00
2022-10-20T11:04:36.842Z,6.70
2022-10-20T11:09:42.288Z,6.80
2022-10-20T11:14:53.766Z,5.30
2022-10-20T11:20:25.479Z,8.10
2022-10-20T11:25:33.066Z,8.80
2022-10-20T11:30:35.719Z,7.50
2022-10-20T11:36:01.204Z,6.40
2022-10-20T11:41:19.196Z,4.40
2022-10-20T11:46:42.952Z,5.20
2022-10-20T11:52:01.665Z,4.70
2022-10-20T11:57:14.845Z,2.50
2022-10-20T12:02:53.311Z,2.90
2022-10-20T12:08:30.626Z,3.20
2022-10-20T12:13:53.999Z,3.50
2022-10-20T12:19:16.467Z,3.40
2022-10-20T12:24:54.800Z,2.70
2022-10-20T12:30:00.680Z,3.80
2022-10-20T12:35:12.820Z,3.70
2022-10-20T12:40:26.684Z,2.50
2022-10-20T12:45:41.051Z,4.40
2022-10-20T12:56:01.329Z,3.40
2022-10-20T13:01:12.650Z,3.20
2022-10-20T13:06:24.764Z,3.10
2022-10-20T13:11:38.567Z,4.00
2022-10-20T13:16:51.734Z,3.50
2022-10-20T13:21:56.769Z,4.80
2022-10-20T13:27:09.189Z,8.30
2022-10-20T13:32:25.346Z,5.90
2022-10-20T13:37:41.759Z,6.60
2022-10-20T13:43:10.737Z,4.20
2022-10-20T13:48:23.040Z,8.70
2022-10-20T13:53:33.852Z,6.60
2022-10-20T13:58:36.587Z,3.80
2022-10-20T14:03:46.953Z,3.70
2022-10-20T14:13:59.772Z,5.10
2022-10-20T14:19:10.597Z,4.80
2022-10-20T14:24:35.402Z,3.00
2022-10-20T14:29:40.300Z,3.80
2022-10-20T14:35:13.979Z,3.00
2022-10-20T14:40:23.231Z,10.50
2022-10-20T14:45:28.146Z,4.10
2022-10-20T14:50:30.882Z,3.90
2022-10-20T14:55:37.338Z,5.40
2022-10-20T15:05:45.387Z,5.10
2022-10-20T15:10:48.433Z,4.60
2022-10-20T15:15:51.437Z,8.30
2022-10-20T15:20:55.749Z,7.20
2022-10-20T15:25:58.576Z,5.70
2022-10-20T15:31:03.630Z,6.00
2022-10-20T15:36:20.246Z,5.20
2022-10-20T15:41:34.832Z,4.80
2022-10-20T15:46:37.633Z,7.30
2022-10-20T15:51:44.428Z,13.40
2022-10-20T15:56:47.945Z,13.60
2022-10-20T16:01:50.747Z,13.20
2022-10-20T16:06:59.036Z,12.00
2022-10-20T16:12:05.245Z,14.80
2022-10-20T16:17:08.059Z,24.80
2022-10-20T16:22:10.963Z,18.90
2022-10-20T16:27:15.707Z,16.80
2022-10-20T16:32:18.510Z,15.30
2022-10-20T16:37:21.925Z,17.10
2022-10-20T16:42:26.466Z,18.70
2022-10-20T16:47:29.266Z,26.00
2022-10-20T16:52:33.093Z,33.60
2022-10-20T16:57:40.406Z,38.70
2022-10-20T17:02:45.145Z,35.40
2022-10-20T17:07:48.047Z,39.70
2022-10-20T17:17:58.566Z,50.60
2022-10-20T17:23:01.366Z,72.70
2022-10-20T17:28:04.271Z,45.90
2022-10-20T17:33:07.655Z,19.90
2022-10-20T17:38:11.818Z,23.70
2022-10-20T17:43:15.477Z,26.30
2022-10-20T17:48:18.443Z,26.30
2022-10-20T17:53:21.246Z,23.00
2022-10-20T17:58:24.151Z,25.70
2022-10-20T18:03:27.056Z,26.00
2022-10-20T18:08:29.871Z,18.60
2022-10-20T18:13:32.755Z,19.60
2022-10-20T18:18:36.071Z,19.10
2022-10-20T18:23:41.431Z,16.20
2022-10-20T18:28:48.189Z,15.20
2022-10-20T18:33:58.186Z,14.40
2022-10-20T18:39:02.530Z,17.70
2022-10-20T18:44:10.073Z,20.20
2022-10-20T18:49:15.505Z,22.60
2022-10-20T18:54:19.706Z,19.80
2022-10-20T18:59:23.256Z,23.90
2022-10-20T19:04:26.150Z,21.40
2022-10-20T19:09:29.064Z,14.70
2022-10-20T19:14:31.864Z,16.60
2022-10-20T19:19:34.667Z,17.40
2022-10-20T19:24:40.745Z,17.80
2022-10-20T19:29:43.546Z,21.20
2022-10-20T19:34:46.450Z,16.70
2022-10-20T19:39:49.355Z,17.20
2022-10-20T19:44:52.152Z,13.60
2022-10-20T19:49:55.467Z,13.50
2022-10-20T19:54:58.678Z,15.50
2022-10-20T20:00:01.476Z,11.70
2022-10-20T20:05:05.386Z,14.90
2022-10-20T20:10:10.262Z,18.20
2022-10-20T20:15:13.156Z,15.80
2022-10-20T20:20:16.061Z,15.30
2022-10-20T20:25:18.967Z,11.80
2022-10-20T20:30:21.867Z,14.50
2022-10-20T20:35:25.082Z,12.70
2022-10-20T20:40:28.288Z,12.50
2022-10-20T20:45:31.088Z,11.70
2022-10-20T20:50:34.302Z,14.30
2022-10-20T20:55:37.099Z,13.70
2022-10-20T21:00:40.050Z,13.60
2022-10-20T21:05:43.053Z,11.30
2022-10-20T21:10:45.809Z,13.80
2022-10-20T21:15:48.612Z,12.40
2022-10-20T21:20:51.411Z,11.40
2022-10-20T21:25:54.213Z,12.50
2022-10-20T21:31:00.845Z,15.00
2022-10-20T21:36:07.471Z,17.50
2022-10-20T21:41:16.338Z,14.80
2022-10-20T21:46:31.426Z,14.10
2022-10-20T21:51:38.836Z,14.20
2022-10-20T21:56:44.463Z,14.80
2022-10-20T22:01:48.808Z,13.80
2022-10-20T22:06:52.255Z,10.90
2022-10-20T22:11:58.646Z,14.20
2022-10-20T22:17:01.443Z,12.20
2022-10-20T22:22:04.346Z,16.70
2022-10-20T22:27:15.459Z,10.50
2022-10-20T22:32:28.174Z,11.40
2022-10-20T22:37:31.080Z,12.30
2022-10-20T22:42:33.881Z,11.50
2022-10-20T22:47:36.782Z,9.90
2022-10-20T22:52:39.825Z,13.40
2022-10-20T22:57:46.825Z,15.40
2022-10-20T23:07:52.449Z,12.20
2022-10-20T23:12:55.183Z,12.80
2022-10-20T23:17:57.805Z,10.80
2022-10-20T23:23:00.478Z,11.60
2022-10-20T23:28:03.122Z,14.60
2022-10-20T23:33:05.759Z,11.50
2022-10-20T23:38:09.761Z,11.70
2022-10-20T23:43:12.332Z,9.90
2022-10-20T23:48:14.967Z,12.40
2022-10-20T23:53:17.988Z,10.90
2022-10-20T23:58:22.580Z,6.40
